createdAt,value
2018-01-10T00:01:48.627Z,16.90
2018-01-10T00:04:19.373Z,16.40
2018-01-10T00:06:50.184Z,18.57
2018-01-10T00:09:21.297Z,15.60
2018-01-10T00:11:52.125Z,15.65
2018-01-10T00:14:22.852Z,18.20
2018-01-10T00:16:53.588Z,15.60
2018-01-10T00:19:24.326Z,13.47
2018-01-10T00:21:55.098Z,17.70
2018-01-10T00:24:25.944Z,13.97
2018-01-10T00:26:56.692Z,14.73
2018-01-10T00:29:27.446Z,17.73
2018-01-10T00:31:58.257Z,15.63
2018-01-10T00:34:29.017Z,15.40
2018-01-10T00:36:59.773Z,14.83
2018-01-10T00:39:30.505Z,13.47
2018-01-10T00:42:01.265Z,14.17
2018-01-10T00:44:32.021Z,16.17
2018-01-10T00:47:02.809Z,13.07
2018-01-10T00:49:33.566Z,13.23
2018-01-10T00:52:04.336Z,11.47
2018-01-10T00:54:35.085Z,11.97
2018-01-10T00:57:05.881Z,13.17
2018-01-10T00:59:36.629Z,13.70
2018-01-10T01:02:07.368Z,13.67
2018-01-10T01:04:38.247Z,16.00
2018-01-10T01:07:09.004Z,13.63
2018-01-10T01:09:39.745Z,13.10
2018-01-10T01:12:10.556Z,12.80
2018-01-10T01:14:41.316Z,11.60
2018-01-10T01:17:12.080Z,14.60
2018-01-10T01:19:42.821Z,12.93
2018-01-10T01:22:13.649Z,12.47
2018-01-10T01:24:44.422Z,15.07
2018-01-10T01:27:15.208Z,14.20
2018-01-10T01:29:46.081Z,14.33
2018-01-10T01:32:16.881Z,13.63
2018-01-10T01:34:47.656Z,15.60
2018-01-10T01:37:18.485Z,17.00
2018-01-10T01:39:49.277Z,13.33
2018-01-10T01:42:20.050Z,15.80
2018-01-10T01:44:50.848Z,15.93
2018-01-10T01:47:21.648Z,15.80
2018-01-10T01:49:52.402Z,17.27
2018-01-10T01:52:23.206Z,17.67
2018-01-10T01:54:53.956Z,14.00
2018-01-10T01:57:24.744Z,16.97
2018-01-10T01:59:55.528Z,16.07
2018-01-10T02:02:26.421Z,15.87
2018-01-10T02:04:57.177Z,14.60
2018-01-10T02:07:28.753Z,20.13
2018-01-10T02:09:59.510Z,18.73
2018-01-10T02:12:30.289Z,15.33
2018-01-10T02:15:01.044Z,16.13
2018-01-10T02:17:31.857Z,14.20
2018-01-10T02:20:02.626Z,21.47
2018-01-10T02:22:33.397Z,23.73
2018-01-10T02:25:04.176Z,18.97
2018-01-10T02:27:34.956Z,13.87
2018-01-10T02:30:05.724Z,12.70
2018-01-10T02:32:36.500Z,14.93
2018-01-10T02:35:07.248Z,15.10
2018-01-10T02:37:38.031Z,12.07
2018-01-10T02:40:09.869Z,15.33
2018-01-10T02:42:40.621Z,14.25
2018-01-10T02:45:11.401Z,11.23
2018-01-10T02:47:42.165Z,12.33
2018-01-10T02:50:12.925Z,11.17
2018-01-10T02:52:43.694Z,12.43
2018-01-10T02:55:14.449Z,13.77
2018-01-10T02:57:45.208Z,16.93
2018-01-10T03:00:22.956Z,10.93
2018-01-10T03:02:53.724Z,13.45
2018-01-10T03:05:24.472Z,12.53
2018-01-10T03:07:55.268Z,14.73
2018-01-10T03:10:26.048Z,27.93
2018-01-10T03:12:56.920Z,21.33
2018-01-10T03:15:27.681Z,23.40
2018-01-10T03:17:58.453Z,39.63
2018-01-10T03:20:29.234Z,26.27
2018-01-10T03:23:00.046Z,46.70
2018-01-10T03:25:30.841Z,37.10
2018-01-10T03:28:01.628Z,27.53
2018-01-10T03:30:32.389Z,37.90
2018-01-10T03:33:03.180Z,43.43
2018-01-10T03:35:34.009Z,46.90
2018-01-10T03:38:04.799Z,39.40
2018-01-10T03:40:35.549Z,38.67
2018-01-10T03:43:06.346Z,21.70
2018-01-10T03:45:37.129Z,27.83
2018-01-10T03:48:07.928Z,30.13
2018-01-10T03:50:38.686Z,20.43
2018-01-10T03:53:09.473Z,31.67
2018-01-10T03:55:40.237Z,18.97
2018-01-10T03:58:11.020Z,30.03
2018-01-10T04:00:41.783Z,14.03
2018-01-10T04:03:12.575Z,13.60
2018-01-10T04:05:43.341Z,15.23
2018-01-10T04:08:14.129Z,12.97
2018-01-10T04:10:44.983Z,18.73
2018-01-10T04:13:15.785Z,11.90
2018-01-10T04:15:46.548Z,15.27
2018-01-10T04:18:17.326Z,16.20
2018-01-10T04:20:48.092Z,18.50
2018-01-10T04:23:18.877Z,14.80
2018-01-10T04:25:49.652Z,16.83
2018-01-10T04:28:20.437Z,14.73
2018-01-10T04:30:51.213Z,16.33
2018-01-10T04:33:22.009Z,13.23
2018-01-10T04:35:52.776Z,18.50
2018-01-10T04:38:23.566Z,16.60
2018-01-10T04:40:54.336Z,15.20
2018-01-10T04:43:25.097Z,14.80
2018-01-10T04:45:55.872Z,14.63
2018-01-10T04:48:26.636Z,14.87
2018-01-10T04:50:57.392Z,13.43
2018-01-10T04:53:28.180Z,12.10
2018-01-10T04:55:58.968Z,12.50
2018-01-10T04:58:29.780Z,12.13
2018-01-10T05:01:00.536Z,11.97
2018-01-10T05:03:31.340Z,11.63
2018-01-10T05:06:02.097Z,12.50
2018-01-10T05:08:32.862Z,14.10
2018-01-10T05:11:03.620Z,11.00
2018-01-10T05:13:34.396Z,12.40
2018-01-10T05:16:05.161Z,13.60
2018-01-10T05:18:35.923Z,13.23
2018-01-10T05:21:06.677Z,12.53
2018-01-10T05:23:37.450Z,15.53
2018-01-10T05:26:08.197Z,13.67
2018-01-10T05:28:38.966Z,12.43
2018-01-10T05:31:09.712Z,14.60
2018-01-10T05:33:40.509Z,14.17
2018-01-10T05:36:11.265Z,14.20
2018-01-10T05:38:42.044Z,13.67
2018-01-10T05:41:12.808Z,13.83
2018-01-10T05:43:43.686Z,12.07
2018-01-10T05:46:14.449Z,13.93
2018-01-10T05:48:45.217Z,13.40
2018-01-10T05:51:15.972Z,14.90
2018-01-10T05:53:46.745Z,13.60
2018-01-10T05:56:17.493Z,14.23
2018-01-10T05:58:48.254Z,14.10
2018-01-10T06:01:19.028Z,13.97
2018-01-10T06:03:49.779Z,15.77
2018-01-10T06:06:20.532Z,16.83
2018-01-10T06:08:51.300Z,16.50
2018-01-10T06:11:22.074Z,13.97
2018-01-10T06:13:52.811Z,14.63
2018-01-10T06:16:23.579Z,15.30
2018-01-10T06:18:54.316Z,17.30
2018-01-10T06:21:25.076Z,15.10
2018-01-10T06:23:55.833Z,13.67
2018-01-10T06:26:26.676Z,13.40
2018-01-10T06:28:57.421Z,13.77
2018-01-10T06:31:28.189Z,15.60
2018-01-10T06:33:58.963Z,16.37
2018-01-10T06:36:29.720Z,14.53
2018-01-10T06:39:00.462Z,16.90
2018-01-10T06:41:31.232Z,16.87
2018-01-10T06:44:01.980Z,14.70
2018-01-10T06:46:32.781Z,17.23
2018-01-10T06:49:03.565Z,14.87
2018-01-10T06:51:34.322Z,16.33
2018-01-10T06:54:05.150Z,16.37
2018-01-10T06:56:35.967Z,15.60
2018-01-10T06:59:06.732Z,16.00
2018-01-10T07:01:37.508Z,15.13
2018-01-10T07:04:08.277Z,16.37
2018-01-10T07:06:39.046Z,16.47
2018-01-10T07:09:09.853Z,17.17
2018-01-10T07:11:40.649Z,18.10
2018-01-10T07:14:11.395Z,15.80
2018-01-10T07:16:42.167Z,20.73
2018-01-10T07:19:12.985Z,17.20
2018-01-10T07:21:44.869Z,20.00
2018-01-10T07:24:15.626Z,16.98
2018-01-10T07:26:46.449Z,16.80
2018-01-10T07:29:17.204Z,16.43
2018-01-10T07:31:47.988Z,16.43
2018-01-10T07:34:18.749Z,17.83
2018-01-10T07:36:49.521Z,17.27
2018-01-10T07:39:20.292Z,17.77
2018-01-10T07:41:51.049Z,20.03
2018-01-10T07:44:21.799Z,21.17
2018-01-10T07:46:52.600Z,18.40
2018-01-10T07:49:23.348Z,18.00
2018-01-10T07:51:54.113Z,26.83
2018-01-10T07:54:24.893Z,18.40
2018-01-10T07:56:55.744Z,28.27
2018-01-10T07:59:26.512Z,27.63
2018-01-10T08:01:57.260Z,20.40
2018-01-10T08:04:28.016Z,22.23
2018-01-10T08:06:58.779Z,31.93
2018-01-10T08:09:29.612Z,33.40
2018-01-10T08:12:00.486Z,39.43
2018-01-10T08:14:31.317Z,40.77
2018-01-10T08:17:02.095Z,28.20
2018-01-10T08:19:32.867Z,45.63
2018-01-10T08:22:03.634Z,45.17
2018-01-10T08:24:34.491Z,31.63
2018-01-10T08:27:05.253Z,34.97
2018-01-10T08:29:36.050Z,27.13
2018-01-10T08:32:06.844Z,23.87
2018-01-10T08:34:37.677Z,26.07
2018-01-10T08:37:08.518Z,55.37
2018-01-10T08:39:39.354Z,29.37
2018-01-10T08:42:10.186Z,26.03
2018-01-10T08:44:41.041Z,20.50
2018-01-10T08:47:11.820Z,23.87
2018-01-10T08:49:42.581Z,23.73
2018-01-10T08:52:13.336Z,27.63
2018-01-10T08:57:21.567Z,25.48
2018-01-10T08:59:52.413Z,19.43
2018-01-10T09:02:23.206Z,23.47
2018-01-10T09:04:53.976Z,21.73
2018-01-10T09:07:24.728Z,21.33
2018-01-10T09:09:55.560Z,17.03
2018-01-10T09:12:26.368Z,20.60
2018-01-10T09:14:57.133Z,17.37
2018-01-10T09:17:29.988Z,18.83
2018-01-10T09:20:00.843Z,20.10
2018-01-10T09:22:31.648Z,17.20
2018-01-10T09:25:02.517Z,20.60
2018-01-10T09:27:33.353Z,17.10
2018-01-10T09:30:04.173Z,19.53
2018-01-10T09:32:35.108Z,19.30
2018-01-10T09:35:06.126Z,19.47
2018-01-10T09:37:36.976Z,18.35
2018-01-10T09:40:07.898Z,19.13
2018-01-10T09:42:38.886Z,17.83
2018-01-10T09:45:11.353Z,20.05
2018-01-10T09:47:42.205Z,18.85
2018-01-10T09:50:13.006Z,17.30
2018-01-10T09:52:43.768Z,18.07
2018-01-10T09:55:14.665Z,17.47
2018-01-10T09:57:45.413Z,17.43
2018-01-10T10:00:16.197Z,17.77
2018-01-10T10:02:46.970Z,14.43
2018-01-10T10:05:17.741Z,17.37
2018-01-10T10:07:48.521Z,18.67
2018-01-10T10:10:19.282Z,16.10
2018-01-10T10:12:50.055Z,15.70
2018-01-10T10:15:21.875Z,15.53
2018-01-10T10:17:59.585Z,14.50
2018-01-10T10:20:30.372Z,16.65
2018-01-10T10:23:01.134Z,14.80
2018-01-10T10:25:31.894Z,15.93
2018-01-10T10:28:02.646Z,12.60
2018-01-10T10:30:33.392Z,15.83
2018-01-10T10:33:04.170Z,14.73
2018-01-10T10:35:34.943Z,15.60
2018-01-10T10:38:05.840Z,15.23
2018-01-10T10:40:36.618Z,14.20
2018-01-10T10:43:07.366Z,15.37
2018-01-10T10:45:38.148Z,15.13
2018-01-10T10:48:08.907Z,13.00
2018-01-10T10:50:39.693Z,12.80
2018-01-10T10:53:10.465Z,16.10
2018-01-10T10:55:41.256Z,14.20
2018-01-10T10:58:12.050Z,15.90
2018-01-10T11:00:42.826Z,13.73
2018-01-10T11:03:13.621Z,13.27
2018-01-10T11:05:44.413Z,12.77
2018-01-10T11:08:15.177Z,12.77
2018-01-10T11:10:45.965Z,12.93
2018-01-10T11:13:16.719Z,14.33
2018-01-10T11:15:47.495Z,13.67
2018-01-10T11:18:18.252Z,16.07
2018-01-10T11:20:49.033Z,14.10
2018-01-10T11:23:19.813Z,13.97
2018-01-10T11:25:50.600Z,16.60
2018-01-10T11:28:27.292Z,18.63
2018-01-10T11:30:58.069Z,14.60
2018-01-10T11:33:28.960Z,15.70
2018-01-10T11:35:59.955Z,14.53
2018-01-10T11:38:30.878Z,15.23
2018-01-10T11:41:01.732Z,14.70
2018-01-10T11:43:32.729Z,15.50
2018-01-10T11:46:03.669Z,16.80
2018-01-10T11:48:34.504Z,14.80
2018-01-10T11:51:09.295Z,19.43
2018-01-10T11:53:40.131Z,18.12
2018-01-10T11:56:10.973Z,17.80
2018-01-10T11:58:41.783Z,18.30
2018-01-10T12:01:12.577Z,16.93
2018-01-10T12:03:43.536Z,16.40
2018-01-10T12:06:14.333Z,18.83
2018-01-10T12:08:45.208Z,16.33
2018-01-10T12:11:16.044Z,16.20
2018-01-10T12:13:48.898Z,15.83
2018-01-10T12:16:19.721Z,18.35
2018-01-10T12:18:50.581Z,17.73
2018-01-10T12:21:21.553Z,19.70
2018-01-10T12:23:52.473Z,18.13
2018-01-10T12:26:23.391Z,20.40
2018-01-10T12:28:54.306Z,18.13
2018-01-10T12:31:25.315Z,21.23
2018-01-10T12:33:56.217Z,20.37
2018-01-10T12:36:26.993Z,18.90
2018-01-10T12:38:57.923Z,17.20
2018-01-10T12:41:28.745Z,19.57
2018-01-10T12:43:59.643Z,20.90
2018-01-10T12:46:31.859Z,21.33
2018-01-10T12:49:02.793Z,19.65
2018-01-10T12:51:33.704Z,23.93
2018-01-10T12:54:04.611Z,21.20
2018-01-10T12:56:35.459Z,24.87
2018-01-10T12:59:06.355Z,21.27
2018-01-10T13:01:37.229Z,20.40
2018-01-10T13:04:08.001Z,23.13
2018-01-10T13:06:38.812Z,21.43
2018-01-10T13:09:09.731Z,22.13
2018-01-10T13:11:40.522Z,22.90
2018-01-10T13:14:11.555Z,21.33
2018-01-10T13:16:42.378Z,20.77
2018-01-10T13:19:13.493Z,22.27
2018-01-10T13:21:44.280Z,20.52
2018-01-10T13:24:15.113Z,20.07
2018-01-10T13:26:46.037Z,19.63
2018-01-10T13:29:16.817Z,22.10
2018-01-10T13:31:47.716Z,22.47
2018-01-10T13:34:18.551Z,21.57
2018-01-10T13:36:49.499Z,30.60
2018-01-10T13:39:20.366Z,23.30
2018-01-10T13:41:51.350Z,24.33
2018-01-10T13:44:22.110Z,22.00
2018-01-10T13:46:52.960Z,27.47
2018-01-10T13:49:23.752Z,24.40
2018-01-10T13:51:54.636Z,22.70
2018-01-10T13:54:25.526Z,24.87
2018-01-10T13:56:56.403Z,25.73
2018-01-10T13:59:27.214Z,22.50
2018-01-10T14:01:58.236Z,21.80
2018-01-10T14:04:29.186Z,21.10
2018-01-10T14:07:00.213Z,26.80
2018-01-10T14:09:31.031Z,24.65
2018-01-10T14:12:01.805Z,25.30
2018-01-10T14:14:32.696Z,24.57
2018-01-10T14:17:03.557Z,27.93
2018-01-10T14:19:34.424Z,22.43
2018-01-10T14:22:05.614Z,24.00
2018-01-10T14:24:36.448Z,24.42
2018-01-10T14:27:07.313Z,23.80
2018-01-10T14:29:38.130Z,21.10
2018-01-10T14:32:08.989Z,21.33
2018-01-10T14:34:39.878Z,19.60
2018-01-10T14:37:10.670Z,20.37
2018-01-10T14:39:41.504Z,19.53
2018-01-10T14:42:12.336Z,24.60
2018-01-10T14:44:43.183Z,23.07
2018-01-10T14:47:13.948Z,23.47
2018-01-10T14:49:44.766Z,21.30
2018-01-10T14:52:15.594Z,20.83
2018-01-10T14:54:46.544Z,17.47
2018-01-10T14:57:17.389Z,27.80
2018-01-10T14:59:48.263Z,25.70
2018-01-10T15:02:19.125Z,26.93
2018-01-10T15:04:50.039Z,27.00
2018-01-10T15:07:20.826Z,26.67
2018-01-10T15:09:51.677Z,19.60
2018-01-10T15:12:22.426Z,24.30
2018-01-10T15:14:53.213Z,23.07
2018-01-10T15:17:24.073Z,34.97
2018-01-10T15:19:54.880Z,19.40
2018-01-10T15:22:25.648Z,20.03
2018-01-10T15:24:56.424Z,27.80
2018-01-10T15:27:27.227Z,27.20
2018-01-10T15:29:58.017Z,28.60
2018-01-10T15:32:28.836Z,29.70
2018-01-10T15:34:59.696Z,27.97
2018-01-10T15:37:30.557Z,29.23
2018-01-10T15:40:01.385Z,28.70
2018-01-10T15:42:32.335Z,29.20
2018-01-10T15:45:03.150Z,27.57
2018-01-10T15:47:34.021Z,27.83
2018-01-10T15:50:04.797Z,28.27
2018-01-10T15:52:35.673Z,29.43
2018-01-10T15:55:06.454Z,34.20
2018-01-10T15:57:37.204Z,27.07
2018-01-10T16:00:08.161Z,27.27
2018-01-10T16:02:39.014Z,29.87
2018-01-10T16:05:09.836Z,28.27
2018-01-10T16:07:40.688Z,27.77
2018-01-10T16:10:11.460Z,28.67
2018-01-10T16:12:42.210Z,28.13
2018-01-10T16:15:13.079Z,25.93
2018-01-10T16:17:43.913Z,26.47
2018-01-10T16:20:14.748Z,26.33
2018-01-10T16:22:45.505Z,29.80
2018-01-10T16:25:16.284Z,27.20
2018-01-10T16:27:47.075Z,25.27
2018-01-10T16:30:17.862Z,26.83
2018-01-10T16:32:48.637Z,31.20
2018-01-10T16:35:19.566Z,24.17
2018-01-10T16:37:50.332Z,25.60
2018-01-10T16:40:21.217Z,27.63
2018-01-10T16:42:52.108Z,23.60
2018-01-10T16:45:22.928Z,24.63
2018-01-10T16:47:53.706Z,25.00
2018-01-10T16:50:24.617Z,28.00
2018-01-10T16:52:55.392Z,25.17
2018-01-10T16:55:26.157Z,25.70
2018-01-10T16:57:56.936Z,23.00
2018-01-10T17:00:27.727Z,25.10
2018-01-10T17:02:58.495Z,19.50
2018-01-10T17:05:29.281Z,20.10
2018-01-10T17:08:00.116Z,26.57
2018-01-10T17:10:30.941Z,23.40
2018-01-10T17:13:01.773Z,22.03
2018-01-10T17:15:32.553Z,26.37
2018-01-10T17:18:03.345Z,29.13
2018-01-10T17:20:34.266Z,21.20
2018-01-10T17:23:05.185Z,26.10
2018-01-10T17:25:35.975Z,24.27
2018-01-10T17:28:06.812Z,23.80
2018-01-10T17:30:37.600Z,22.40
2018-01-10T17:33:08.410Z,25.20
2018-01-10T17:35:39.244Z,24.87
2018-01-10T17:38:10.048Z,23.43
2018-01-10T17:40:40.849Z,21.23
2018-01-10T17:43:11.606Z,23.93
2018-01-10T17:45:42.372Z,27.60
2018-01-10T17:48:13.205Z,24.80
2018-01-10T17:50:44.040Z,21.93
2018-01-10T17:53:14.868Z,25.37
2018-01-10T17:55:45.690Z,26.73
2018-01-10T17:58:16.552Z,28.87
2018-01-10T18:00:47.444Z,26.60
2018-01-10T18:03:18.221Z,27.10
2018-01-10T18:05:49.125Z,26.10
2018-01-10T18:08:19.909Z,28.33
2018-01-10T18:10:51.789Z,28.67
2018-01-10T18:13:22.574Z,29.35
2018-01-10T18:15:53.444Z,29.07
2018-01-10T18:18:25.468Z,30.47
2018-01-10T18:20:56.368Z,23.42
2018-01-10T18:23:27.168Z,29.77
2018-01-10T18:25:58.023Z,29.77
2018-01-10T18:28:28.917Z,28.87
2018-01-10T18:30:59.714Z,34.40
2018-01-10T18:33:30.524Z,35.30
2018-01-10T18:36:01.352Z,29.17
2018-01-10T18:38:32.153Z,34.10
2018-01-10T18:41:04.184Z,30.80
2018-01-10T18:43:34.939Z,36.75
2018-01-10T18:46:05.773Z,48.60
2018-01-10T18:48:36.649Z,49.40
2018-01-10T18:51:07.508Z,35.00
2018-01-10T18:53:38.281Z,44.20
2018-01-10T18:56:09.181Z,58.43
2018-01-10T18:58:39.968Z,58.57
2018-01-10T19:01:10.870Z,39.70
2018-01-10T19:03:41.689Z,38.17
2018-01-10T19:06:12.500Z,55.70
2018-01-10T19:08:43.388Z,42.13
2018-01-10T19:11:14.184Z,45.30
2018-01-10T19:13:44.959Z,43.43
2018-01-10T19:16:15.892Z,33.20
2018-01-10T19:18:47.494Z,31.77
2018-01-10T19:21:18.312Z,35.30
2018-01-10T19:23:49.134Z,38.00
2018-01-10T19:26:20.073Z,44.60
2018-01-10T19:28:50.861Z,36.13
2018-01-10T19:31:21.636Z,56.83
2018-01-10T19:33:52.413Z,43.60
2018-01-10T19:36:23.196Z,59.80
2018-01-10T19:38:53.976Z,56.73
2018-01-10T19:41:24.745Z,45.07
2018-01-10T19:43:55.502Z,63.43
2018-01-10T19:46:26.278Z,35.27
2018-01-10T19:48:57.064Z,47.30
2018-01-10T19:51:27.838Z,43.87
2018-01-10T19:53:58.597Z,71.93
2018-01-10T19:56:29.381Z,23.03
2018-01-10T19:59:00.132Z,57.57
2018-01-10T20:01:31.021Z,36.57
2018-01-10T20:04:01.788Z,56.60
2018-01-10T20:06:32.572Z,47.40
2018-01-10T20:09:03.359Z,52.70
2018-01-10T20:11:34.149Z,40.53
2018-01-10T20:14:04.909Z,49.77
2018-01-10T20:16:35.686Z,33.07
2018-01-10T20:19:06.461Z,72.30
2018-01-10T20:21:37.244Z,33.83
2018-01-10T20:24:07.983Z,47.20
2018-01-10T20:26:38.761Z,25.23
2018-01-10T20:29:09.550Z,29.53
2018-01-10T20:31:40.348Z,44.43
2018-01-10T20:34:11.102Z,43.73
2018-01-10T20:36:41.877Z,31.60
2018-01-10T20:39:12.660Z,41.30
2018-01-10T20:41:43.442Z,51.00
2018-01-10T20:44:14.195Z,37.53
2018-01-10T20:46:44.989Z,33.43
2018-01-10T20:49:15.757Z,45.80
2018-01-10T20:51:46.551Z,34.10
2018-01-10T20:54:17.315Z,53.73
2018-01-10T20:56:48.122Z,53.03
2018-01-10T20:59:18.880Z,57.37
2018-01-10T21:01:49.675Z,42.97
2018-01-10T21:04:20.455Z,24.30
2018-01-10T21:06:51.237Z,17.43
2018-01-10T21:09:22.043Z,19.73
2018-01-10T21:11:52.889Z,21.53
2018-01-10T21:14:23.657Z,29.40
2018-01-10T21:16:54.450Z,28.40
2018-01-10T21:19:25.220Z,33.40
2018-01-10T21:21:56.105Z,21.10
2018-01-10T21:24:26.854Z,25.67
2018-01-10T21:26:57.657Z,23.53
2018-01-10T21:29:28.425Z,20.90
2018-01-10T21:31:59.226Z,14.53
2018-01-10T21:34:29.977Z,25.63
2018-01-10T21:37:00.760Z,16.53
2018-01-10T21:39:31.573Z,32.13
2018-01-10T21:42:02.392Z,21.73
2018-01-10T21:44:33.170Z,18.43
2018-01-10T21:47:04.011Z,19.40
2018-01-10T21:49:34.776Z,20.80
2018-01-10T21:52:05.578Z,23.70
2018-01-10T21:54:36.385Z,21.20
2018-01-10T21:59:44.811Z,14.30
2018-01-10T22:02:15.580Z,21.13
2018-01-10T22:04:46.362Z,15.83
2018-01-10T22:07:17.134Z,14.83
2018-01-10T22:09:47.966Z,37.97
2018-01-10T22:12:18.751Z,14.13
2018-01-10T22:14:49.546Z,31.53
2018-01-10T22:17:20.357Z,34.13
2018-01-10T22:19:51.185Z,25.63
2018-01-10T22:22:21.985Z,26.07
2018-01-10T22:24:52.777Z,15.40
2018-01-10T22:27:23.563Z,25.13
2018-01-10T22:29:54.370Z,19.00
2018-01-10T22:32:25.174Z,20.40
2018-01-10T22:34:55.966Z,16.10
2018-01-10T22:37:26.759Z,24.47
2018-01-10T22:39:57.526Z,17.13
2018-01-10T22:42:28.301Z,19.97
2018-01-10T22:44:59.089Z,24.10
2018-01-10T22:47:29.862Z,28.53
2018-01-10T22:50:00.643Z,29.63
2018-01-10T22:52:31.416Z,23.73
2018-01-10T22:55:02.222Z,19.50
2018-01-10T22:57:33.013Z,32.63
2018-01-10T23:00:03.819Z,29.57
2018-01-10T23:02:34.593Z,26.40
2018-01-10T23:05:05.396Z,39.50
2018-01-10T23:07:36.190Z,53.70
2018-01-10T23:10:08.509Z,37.57
2018-01-10T23:12:39.269Z,30.80
2018-01-10T23:15:10.060Z,37.37
2018-01-10T23:17:40.816Z,24.60
2018-01-10T23:20:11.603Z,21.27
2018-01-10T23:22:42.370Z,24.17
2018-01-10T23:25:13.230Z,25.30
2018-01-10T23:27:44.029Z,22.20
2018-01-10T23:30:14.805Z,27.87
2018-01-10T23:32:46.601Z,51.20
2018-01-10T23:35:17.404Z,24.00
2018-01-10T23:37:48.172Z,23.57
2018-01-10T23:40:18.965Z,26.13
2018-01-10T23:42:49.725Z,16.10
2018-01-10T23:45:20.537Z,15.50
2018-01-10T23:47:51.324Z,19.50
2018-01-10T23:50:22.156Z,20.23
2018-01-10T23:52:52.925Z,40.27
2018-01-10T23:55:23.695Z,26.80
2018-01-10T23:57:54.483Z,22.73
